Time;durP1;ratioP1;P1;durP2;ratioP2;P2;SDS_P1;SDS_P2;PMS_P1;PMS_P2;Temp;Humidity;BMP_temperature;BMP_pressure;BME280_temperature;BME280_humidity;BME280_pressure;Samples;Min_cycle;Max_cycle;Signal;HPM_P1;HPM_P2
2022/08/25 00:00:55;;;;;;;;;;;17.20;99.90;;;;;;4195547;28;20301;-81
2022/08/25 00:02:57;;;;;;;;;;;17.00;99.90;;;;;;4190377;28;19931;-81
2022/08/25 00:04:59;;;;;;;;;;;17.10;99.90;;;;;;4177800;28;19936;-81
2022/08/25 00:07:02;;;;;;;;;;;17.20;99.90;;;;;;4195374;28;19928;-81
2022/08/25 00:09:04;;;;;;;;;;;17.30;99.90;;;;;;4177834;28;19929;-81
2022/08/25 00:11:08;;;;;;;;;;;17.30;99.90;;;;;;4195029;28;19928;-81
2022/08/25 00:13:10;;;;;;;;;;;17.20;99.90;;;;;;4198762;28;19978;-81
2022/08/25 00:15:13;;;;;;;;;;;17.00;99.90;;;;;;4164413;28;19929;-81
2022/08/25 00:17:15;;;;;;;;;;;17.00;99.90;;;;;;4180816;28;19935;-81
2022/08/25 00:19:20;;;;;;;;;;;17.00;99.90;;;;;;4181158;28;19935;-81
2022/08/25 00:21:22;;;;;;;;;;;16.90;99.90;;;;;;4180782;28;19947;-81
2022/08/25 00:23:24;;;;;;;;;;;16.70;99.90;;;;;;4197410;28;20303;-81
2022/08/25 00:25:27;;;;;;;;;;;16.80;99.90;;;;;;4180874;28;19928;-81
2022/08/25 00:27:29;;;;;;;;;;;16.80;99.90;;;;;;4164321;28;19929;-81
2022/08/25 00:29:32;;;;;;;;;;;16.70;99.90;;;;;;4198390;28;19925;-81
2022/08/25 00:31:34;;;;;;;;;;;16.70;99.90;;;;;;4198424;28;19967;-81
2022/08/25 00:33:39;;;;;;;;;;;16.70;99.90;;;;;;4198027;28;19947;-81
2022/08/25 00:35:41;;;;;;;;;;;16.60;99.90;;;;;;4214159;28;20002;-81
2022/08/25 00:37:43;;;;;;;;;;;16.80;99.90;;;;;;4180468;28;19932;-81
2022/08/25 00:39:46;;;;;;;;;;;16.80;99.90;;;;;;4198346;28;19928;-80
2022/08/25 00:41:50;;;;;;;;;;;16.80;99.90;;;;;;4197026;28;19924;-81
2022/08/25 00:43:58;;;;;;;;;;;16.80;99.90;;;;;;4198285;28;19932;-81
2022/08/25 00:45:59;;;;;;;;;;;16.80;99.90;;;;;;4198204;28;20324;-81
2022/08/25 00:48:02;;;;;;;;;;;16.80;99.90;;;;;;4197201;28;19928;-81
2022/08/25 00:50:05;;;;;;;;;;;16.70;99.90;;;;;;4197956;28;19935;-81
2022/08/25 00:52:24;;;;;;;;;;;16.70;99.90;;;;;;4180269;28;19936;-81
2022/08/25 00:54:46;;;;;;;;;;;16.60;99.90;;;;;;4198264;28;19983;-81
2022/08/25 00:56:50;;;;;;;;;;;16.70;99.90;;;;;;4196815;28;19963;-81
2022/08/25 00:58:52;;;;;;;;;;;16.60;99.90;;;;;;4196383;28;20676;-81
2022/08/25 01:00:55;;;;;;;;;;;16.60;99.90;;;;;;4197995;28;20442;-81
2022/08/25 01:02:57;;;;;;;;;;;16.60;99.90;;;;;;4179683;28;19925;-81
2022/08/25 01:04:59;;;;;;;;;;;16.60;99.90;;;;;;4198086;28;19939;-80
2022/08/25 01:07:02;;;;;;;;;;;16.50;99.90;;;;;;4198114;28;19930;-81
2022/08/25 01:09:06;;;;;;;;;;;16.50;99.90;;;;;;4180050;28;19925;-81
2022/08/25 01:11:09;;;;;;;;;;;16.60;99.90;;;;;;4179893;28;19979;-81
2022/08/25 01:13:34;;;;;;;;;;;16.50;99.90;;;;;;4181010;28;19928;-81
2022/08/25 01:15:35;;;;;;;;;;;16.50;99.90;;;;;;4180228;28;19925;-81
2022/08/25 01:17:46;;;;;;;;;;;16.40;99.90;;;;;;4180913;28;19925;-81
2022/08/25 01:19:47;;;;;;;;;;;16.40;99.90;;;;;;4181246;28;19964;-81
2022/08/25 01:21:50;;;;;;;;;;;16.50;99.90;;;;;;4179723;28;20446;-81
2022/08/25 01:23:54;;;;;;;;;;;16.50;99.90;;;;;;4180228;28;20016;-80
2022/08/25 01:25:59;;;;;;;;;;;16.60;99.90;;;;;;4180146;28;20043;-81
2022/08/25 01:28:01;;;;;;;;;;;16.60;99.90;;;;;;4171881;28;20760;-80
2022/08/25 01:30:03;;;;;;;;;;;16.60;99.90;;;;;;4162847;28;20068;-81
2022/08/25 01:32:07;;;;;;;;;;;16.60;99.90;;;;;;4161302;28;19964;-81
2022/08/25 01:34:11;;;;;;;;;;;16.60;99.90;;;;;;4173927;28;19925;-81
2022/08/25 01:36:16;;;;;;;;;;;16.50;99.90;;;;;;4163229;28;19959;-81
2022/08/25 01:38:19;;;;;;;;;;;16.50;99.90;;;;;;4195855;28;20199;-81
2022/08/25 01:40:21;;;;;;;;;;;16.50;99.90;;;;;;4167554;28;19960;-81
2022/08/25 01:42:31;;;;;;;;;;;16.30;99.90;;;;;;4181017;28;19935;-81
2022/08/25 01:44:35;;;;;;;;;;;16.20;99.90;;;;;;4179489;28;19924;-81
2022/08/25 01:46:37;;;;;;;;;;;16.10;99.90;;;;;;4174488;28;19928;-80
2022/08/25 01:48:39;;;;;;;;;;;16.00;99.90;;;;;;4147892;28;19929;-81
2022/08/25 01:50:42;;;;;;;;;;;15.90;99.90;;;;;;4190155;28;19999;-81
2022/08/25 01:52:55;;;;;;;;;;;16.00;99.90;;;;;;4179210;28;19932;-81
2022/08/25 01:54:56;;;;;;;;;;;16.10;99.90;;;;;;4155592;28;19933;-81
2022/08/25 01:56:58;;;;;;;;;;;16.10;99.90;;;;;;4156575;28;20301;-81
2022/08/25 01:59:00;;;;;;;;;;;16.10;99.90;;;;;;4163445;28;20389;-81
2022/08/25 02:01:05;;;;;;;;;;;16.10;99.90;;;;;;4179489;28;20324;-80
2022/08/25 02:03:07;;;;;;;;;;;16.10;99.90;;;;;;4179021;28;19929;-81
2022/08/25 02:05:12;;;;;;;;;;;16.00;99.90;;;;;;4179402;28;20011;-81
2022/08/25 02:07:14;;;;;;;;;;;16.00;99.90;;;;;;4180885;28;20019;-80
2022/08/25 02:09:17;;;;;;;;;;;16.00;99.90;;;;;;4179252;28;19928;-81
2022/08/25 02:11:19;;;;;;;;;;;15.80;99.90;;;;;;4194567;28;19943;-81
2022/08/25 02:13:22;;;;;;;;;;;15.80;99.90;;;;;;4162437;28;20019;-81
2022/08/25 02:15:27;;;;;;;;;;;15.80;99.90;;;;;;4178787;28;20368;-81
2022/08/25 02:17:30;;;;;;;;;;;15.80;99.90;;;;;;4179232;28;19929;-81
2022/08/25 02:19:32;;;;;;;;;;;15.80;99.90;;;;;;4162398;28;19929;-81
2022/08/25 02:21:34;;;;;;;;;;;15.90;99.90;;;;;;4179240;28;19929;-81
2022/08/25 02:23:37;;;;;;;;;;;16.00;99.90;;;;;;4196601;28;19935;-80
2022/08/25 02:25:40;;;;;;;;;;;16.00;99.90;;;;;;4196595;28;20502;-81
2022/08/25 02:27:42;;;;;;;;;;;16.00;99.90;;;;;;4197065;28;20019;-81
2022/08/25 02:29:46;;;;;;;;;;;16.10;99.90;;;;;;4196664;28;19924;-81
2022/08/25 02:31:48;;;;;;;;;;;16.10;99.90;;;;;;4178811;28;19928;-81
2022/08/25 02:33:50;;;;;;;;;;;16.10;99.90;;;;;;4196087;28;19929;-81
2022/08/25 02:35:55;;;;;;;;;;;16.10;99.90;;;;;;4195872;28;19931;-81
2022/08/25 02:37:57;;;;;;;;;;;16.10;99.90;;;;;;4178636;28;20411;-80
2022/08/25 02:39:59;;;;;;;;;;;16.00;99.90;;;;;;4196315;28;20035;-81
2022/08/25 02:42:02;;;;;;;;;;;16.10;99.90;;;;;;4178497;28;19983;-80
2022/08/25 02:44:05;;;;;;;;;;;16.10;99.90;;;;;;4178478;28;19932;-81
2022/08/25 02:46:10;;;;;;;;;;;15.90;99.90;;;;;;4196347;28;20015;-81
2022/08/25 02:48:12;;;;;;;;;;;15.80;99.90;;;;;;4192964;28;20402;-80
2022/08/25 02:50:14;;;;;;;;;;;15.80;99.90;;;;;;4195170;28;19929;-81
2022/08/25 02:52:16;;;;;;;;;;;15.70;99.90;;;;;;4195981;28;19934;-80
2022/08/25 02:54:18;;;;;;;;;;;15.70;99.90;;;;;;4196198;28;19928;-80
2022/08/25 02:56:20;;;;;;;;;;;15.60;99.90;;;;;;4178217;28;19929;-81
2022/08/25 02:58:22;;;;;;;;;;;15.60;99.90;;;;;;4178182;28;19964;-80
2022/08/25 03:00:25;;;;;;;;;;;15.60;99.90;;;;;;4196062;28;20407;-81
2022/08/25 03:02:27;;;;;;;;;;;15.50;99.90;;;;;;4177710;28;19925;-80
2022/08/25 03:04:30;;;;;;;;;;;15.60;99.90;;;;;;4178197;28;19931;-80
2022/08/25 03:06:33;;;;;;;;;;;15.50;99.90;;;;;;4178289;28;19924;-80
2022/08/25 03:08:36;;;;;;;;;;;15.60;99.90;;;;;;4194899;28;19924;-80
2022/08/25 03:10:38;;;;;;;;;;;15.50;99.90;;;;;;4177993;28;20436;-81
2022/08/25 03:12:44;;;;;;;;;;;15.40;99.90;;;;;;4195820;28;19928;-81
2022/08/25 03:14:46;;;;;;;;;;;15.30;99.90;;;;;;4196227;28;19939;-80
2022/08/25 03:16:48;;;;;;;;;;;15.40;99.90;;;;;;4178004;28;20399;-80
2022/08/25 03:18:50;;;;;;;;;;;15.50;99.90;;;;;;4178313;28;20548;-81
2022/08/25 03:20:52;;;;;;;;;;;15.60;99.90;;;;;;4196032;28;19928;-81
2022/08/25 03:22:54;;;;;;;;;;;15.70;99.90;;;;;;4195694;28;19928;-81
2022/08/25 03:26:52;;;;;;;;;;;15.70;99.90;;;;;;4196040;28;20656;-81
2022/08/25 03:27:21;;;;;;;;;;;15.60;99.90;;;;;;4195935;28;19924;-81
2022/08/25 03:29:24;;;;;;;;;;;15.70;99.90;;;;;;4195508;28;19928;-81
2022/08/25 03:31:26;;;;;;;;;;;15.60;99.90;;;;;;4178251;28;20323;-81
2022/08/25 03:33:29;;;;;;;;;;;15.70;99.90;;;;;;4178513;28;19925;-81
2022/08/25 03:35:31;;;;;;;;;;;15.70;99.90;;;;;;4201726;28;19924;-81
2022/08/25 03:37:33;;;;;;;;;;;15.60;99.90;;;;;;4178003;28;19971;-81
2022/08/25 03:39:35;;;;;;;;;;;15.50;99.90;;;;;;4211103;28;20023;-81
2022/08/25 03:41:36;;;;;;;;;;;15.40;99.90;;;;;;4210279;28;19928;-80
2022/08/25 03:43:39;;;;;;;;;;;15.40;99.90;;;;;;4178239;28;19932;-81
2022/08/25 03:45:42;;;;;;;;;;;15.40;99.90;;;;;;4195174;28;19924;-81
2022/08/25 03:47:46;;;;;;;;;;;15.20;99.90;;;;;;4194559;28;19968;-80
2022/08/25 03:49:48;;;;;;;;;;;15.20;99.90;;;;;;4195589;28;19931;-81
2022/08/25 03:51:51;;;;;;;;;;;15.20;99.90;;;;;;4177679;28;19928;-81
2022/08/25 03:53:53;;;;;;;;;;;15.20;99.90;;;;;;4195392;28;19930;-80
2022/08/25 03:55:56;;;;;;;;;;;15.30;99.90;;;;;;4195519;28;19928;-81
2022/08/25 03:57:58;;;;;;;;;;;15.30;99.90;;;;;;4195976;28;20022;-81
2022/08/25 04:00:00;;;;;;;;;;;15.30;99.90;;;;;;4195506;28;20059;-81
2022/08/25 04:02:04;;;;;;;;;;;15.30;99.90;;;;;;4177579;28;19929;-80
2022/08/25 04:04:07;;;;;;;;;;;15.40;99.90;;;;;;4195596;28;19924;-81
2022/08/25 04:06:09;;;;;;;;;;;15.30;99.90;;;;;;4195677;28;19936;-81
2022/08/25 04:08:11;;;;;;;;;;;15.40;99.90;;;;;;4177898;28;19964;-80
2022/08/25 04:10:14;;;;;;;;;;;15.40;99.90;;;;;;4177653;28;19924;-81
2022/08/25 04:12:16;;;;;;;;;;;15.30;99.90;;;;;;4195220;28;19999;-81
2022/08/25 04:14:19;;;;;;;;;;;15.30;99.90;;;;;;4177646;28;20316;-81
2022/08/25 04:19:04;;;;;;;;;;;15.30;99.90;;;;;;4171512;28;19991;-81
2022/08/25 04:21:10;;;;;;;;;;;15.30;99.90;;;;;;4177733;28;19963;-80
2022/08/25 04:23:12;;;;;;;;;;;15.30;99.90;;;;;;4195668;28;20431;-80
2022/08/25 04:25:14;;;;;;;;;;;15.20;99.90;;;;;;4177482;28;19925;-80
2022/08/25 04:27:16;;;;;;;;;;;15.20;99.90;;;;;;4195547;28;19932;-80
2022/08/25 04:29:20;;;;;;;;;;;15.30;99.90;;;;;;4177208;28;19928;-81
2022/08/25 04:31:26;;;;;;;;;;;15.30;99.90;;;;;;4177180;28;19931;-81
2022/08/25 04:33:28;;;;;;;;;;;15.20;99.90;;;;;;4209054;28;19924;-81
2022/08/25 04:35:30;;;;;;;;;;;15.10;99.90;;;;;;4161019;28;19929;-80
2022/08/25 04:37:33;;;;;;;;;;;15.20;99.90;;;;;;4194910;28;20308;-80
2022/08/25 04:39:35;;;;;;;;;;;15.20;99.90;;;;;;4177708;28;19925;-81
2022/08/25 04:41:38;;;;;;;;;;;15.20;99.90;;;;;;4195106;28;19974;-80
2022/08/25 04:43:42;;;;;;;;;;;15.20;99.90;;;;;;4195375;28;20315;-80
2022/08/25 04:45:45;;;;;;;;;;;15.30;99.90;;;;;;4177629;28;19951;-81
2022/08/25 04:47:48;;;;;;;;;;;15.30;99.90;;;;;;4195048;28;19932;-80
2022/08/25 04:52:53;;;;;;;;;;;15.30;99.90;;;;;;4194901;28;19920;-81
2022/08/25 04:54:55;;;;;;;;;;;15.20;99.90;;;;;;4195222;28;19924;-81
2022/08/25 04:56:57;;;;;;;;;;;15.30;99.90;;;;;;4177208;28;19955;-80
2022/08/25 04:59:04;;;;;;;;;;;15.30;99.90;;;;;;4179099;28;19932;-80
2022/08/25 05:01:14;;;;;;;;;;;15.30;99.90;;;;;;4210465;28;19928;-81
2022/08/25 05:03:16;;;;;;;;;;;15.20;99.90;;;;;;4179809;28;19924;-81
2022/08/25 05:05:18;;;;;;;;;;;15.20;99.90;;;;;;4187921;28;19981;-80
2022/08/25 05:07:20;;;;;;;;;;;15.10;99.90;;;;;;4196685;28;20051;-81
2022/08/25 05:09:23;;;;;;;;;;;15.00;99.90;;;;;;4208606;28;19950;-81
2022/08/25 05:11:26;;;;;;;;;;;15.00;99.90;;;;;;4197551;28;19960;-80
2022/08/25 05:13:27;;;;;;;;;;;14.90;99.90;;;;;;4179504;28;19960;-82
2022/08/25 05:17:51;;;;;;;;;;;14.90;99.90;;;;;;4210229;28;19928;-83
2022/08/25 05:19:56;;;;;;;;;;;15.00;99.90;;;;;;4196884;28;20023;-84
2022/08/25 05:21:58;;;;;;;;;;;15.10;99.90;;;;;;4179295;28;20347;-84
2022/08/25 05:26:59;;;;;;;;;;;15.10;99.90;;;;;;4179078;28;19917;-84
2022/08/25 05:29:03;;;;;;;;;;;15.20;99.90;;;;;;4173964;28;20444;-84
2022/08/25 05:31:07;;;;;;;;;;;15.30;99.90;;;;;;4191363;28;19928;-84
2022/08/25 05:33:10;;;;;;;;;;;15.30;99.90;;;;;;4189054;28;20046;-84
2022/08/25 05:35:12;;;;;;;;;;;15.30;99.90;;;;;;4179101;28;19928;-84
2022/08/25 05:37:15;;;;;;;;;;;15.30;99.90;;;;;;4195604;28;19924;-84
2022/08/25 05:39:17;;;;;;;;;;;15.40;99.90;;;;;;4195010;28;20042;-84
2022/08/25 05:41:20;;;;;;;;;;;15.50;99.90;;;;;;4162402;28;19933;-84
2022/08/25 05:43:22;;;;;;;;;;;15.60;99.90;;;;;;4196315;28;19925;-84
2022/08/25 05:45:25;;;;;;;;;;;15.60;99.90;;;;;;4182827;28;20365;-84
2022/08/25 05:47:27;;;;;;;;;;;15.60;99.90;;;;;;4184829;28;20347;-84
2022/08/25 05:49:29;;;;;;;;;;;15.70;99.90;;;;;;4179366;28;19959;-84
2022/08/25 05:51:31;;;;;;;;;;;15.80;99.90;;;;;;4184137;28;19943;-84
2022/08/25 05:53:33;;;;;;;;;;;15.90;99.90;;;;;;4196971;28;19955;-84
2022/08/25 05:55:35;;;;;;;;;;;16.10;99.90;;;;;;4212965;28;20027;-84
2022/08/25 05:57:37;;;;;;;;;;;16.20;99.90;;;;;;4197053;28;19944;-84
2022/08/25 06:00:03;;;;;;;;;;;16.30;99.90;;;;;;4197309;28;20038;-84
2022/08/25 06:04:25;;;;;;;;;;;16.60;99.90;;;;;;4197108;28;19928;-84
2022/08/25 06:06:27;;;;;;;;;;;16.60;99.90;;;;;;4196095;28;19928;-84
2022/08/25 06:08:32;;;;;;;;;;;16.70;99.90;;;;;;4212390;28;19950;-84
2022/08/25 06:10:35;;;;;;;;;;;16.90;99.90;;;;;;4212260;28;19997;-84
2022/08/25 06:12:38;;;;;;;;;;;16.90;99.90;;;;;;4195605;28;19956;-84
2022/08/25 06:14:41;;;;;;;;;;;16.90;99.90;;;;;;4195518;28;19960;-84
2022/08/25 06:16:43;;;;;;;;;;;17.10;99.90;;;;;;4178955;28;19979;-84
2022/08/25 06:18:45;;;;;;;;;;;17.20;99.90;;;;;;4196296;28;19929;-84
2022/08/25 06:20:48;;;;;;;;;;;17.50;99.90;;;;;;4212414;28;20569;-84
2022/08/25 06:22:50;;;;;;;;;;;17.50;99.90;;;;;;4169721;28;19969;-84
2022/08/25 06:24:53;;;;;;;;;;;17.60;99.90;;;;;;4170818;28;19925;-84
2022/08/25 06:26:56;;;;;;;;;;;17.60;99.90;;;;;;4210749;28;19927;-84
2022/08/25 06:28:58;;;;;;;;;;;17.90;99.90;;;;;;4188464;28;19978;-85
2022/08/25 06:31:02;;;;;;;;;;;18.20;99.90;;;;;;4196521;28;19929;-85
2022/08/25 06:33:04;;;;;;;;;;;18.20;99.90;;;;;;4178272;28;20015;-85
2022/08/25 06:38:03;;;;;;;;;;;18.40;99.90;;;;;;4179991;28;20035;-84
2022/08/25 06:40:06;;;;;;;;;;;18.80;99.90;;;;;;4162082;28;20008;-84
2022/08/25 06:42:08;;;;;;;;;;;18.60;99.90;;;;;;4195980;28;19925;-83
2022/08/25 06:44:10;;;;;;;;;;;18.60;99.90;;;;;;4196002;28;19928;-83
2022/08/25 06:46:15;;;;;;;;;;;18.60;99.90;;;;;;4195755;28;19939;-83
2022/08/25 06:48:17;;;;;;;;;;;18.70;99.90;;;;;;4195789;28;20011;-83
2022/08/25 06:50:20;;;;;;;;;;;19.10;99.90;;;;;;4196347;28;19925;-83
2022/08/25 06:52:22;;;;;;;;;;;19.10;99.90;;;;;;4196218;28;20384;-83
2022/08/25 06:54:30;;;;;;;;;;;19.30;99.90;;;;;;4195900;28;20008;-83
2022/08/25 06:56:33;;;;;;;;;;;19.60;99.90;;;;;;4196078;28;19931;-83
2022/08/25 06:58:34;;;;;;;;;;;20.00;99.90;;;;;;4194886;28;19988;-83
2022/08/25 07:00:36;;;;;;;;;;;20.30;99.90;;;;;;4195887;28;19924;-83
2022/08/25 07:02:38;;;;;;;;;;;20.20;99.90;;;;;;4195868;28;19924;-83
2022/08/25 07:04:41;;;;;;;;;;;20.10;99.90;;;;;;4194864;28;20499;-83
2022/08/25 07:06:42;;;;;;;;;;;20.50;99.90;;;;;;4195930;28;20312;-83
2022/08/25 07:08:46;;;;;;;;;;;20.80;99.90;;;;;;4195894;28;19963;-83
2022/08/25 07:10:49;;;;;;;;;;;20.60;99.90;;;;;;4177856;28;19931;-83
2022/08/25 07:12:51;;;;;;;;;;;20.60;99.90;;;;;;4178112;28;19978;-83
2022/08/25 07:14:54;;;;;;;;;;;20.70;99.90;;;;;;4195655;28;19971;-83
2022/08/25 07:17:11;;;;;;;;;;;20.70;99.90;;;;;;4180223;28;20752;-83
2022/08/25 07:19:14;;;;;;;;;;;21.00;99.90;;;;;;4211334;28;19928;-83
2022/08/25 07:21:15;;;;;;;;;;;21.00;99.90;;;;;;4195122;28;20086;-83
2022/08/25 07:23:19;;;;;;;;;;;20.90;99.90;;;;;;4195741;28;19928;-83
2022/08/25 07:25:22;;;;;;;;;;;20.90;99.90;;;;;;4161263;28;19939;-83
2022/08/25 07:27:25;;;;;;;;;;;21.30;99.90;;;;;;4178198;28;20023;-83
2022/08/25 07:29:27;;;;;;;;;;;21.40;99.90;;;;;;4195716;28;19925;-83
2022/08/25 07:31:33;;;;;;;;;;;21.50;99.90;;;;;;4178626;28;19925;-83
2022/08/25 07:33:35;;;;;;;;;;;21.60;99.90;;;;;;4177279;28;19964;-83
2022/08/25 07:35:37;;;;;;;;;;;21.60;99.90;;;;;;4195690;28;20266;-83
2022/08/25 07:37:40;;;;;;;;;;;21.90;99.90;;;;;;4195600;28;19929;-83
2022/08/25 07:39:50;;;;;;;;;;;22.70;99.90;;;;;;4195593;28;19931;-83
2022/08/25 07:41:52;;;;;;;;;;;22.70;99.90;;;;;;4195478;28;19932;-84
2022/08/25 07:46:51;;;;;;;;;;;23.30;99.90;;;;;;4194065;28;19936;-83
2022/08/25 07:48:54;;;;;;;;;;;23.20;99.90;;;;;;4177817;28;19939;-83
2022/08/25 07:50:56;;;;;;;;;;;23.30;99.90;;;;;;4177788;28;19929;-83
2022/08/25 07:52:58;;;;;;;;;;;23.60;99.90;;;;;;4176792;28;20411;-83
2022/08/25 07:55:01;;;;;;;;;;;23.80;99.90;;;;;;4194173;28;19959;-84
2022/08/25 07:57:03;;;;;;;;;;;23.70;99.90;;;;;;4195684;28;19956;-83
2022/08/25 07:59:06;;;;;;;;;;;23.80;99.90;;;;;;4195306;28;19929;-84
2022/08/25 08:01:18;;;;;;;;;;;24.10;99.90;;;;;;4195600;28;19933;-83
2022/08/25 08:03:21;;;;;;;;;;;24.00;99.90;;;;;;4177796;28;19929;-83
2022/08/25 08:05:43;;;;;;;;;;;24.00;99.90;;;;;;4186104;28;19936;-83
2022/08/25 08:07:46;;;;;;;;;;;24.10;99.90;;;;;;4195366;28;19924;-83
2022/08/25 08:09:48;;;;;;;;;;;24.20;99.90;;;;;;4195521;28;19929;-84
2022/08/25 08:11:57;;;;;;;;;;;24.20;99.90;;;;;;4194592;28;19928;-84
2022/08/25 08:13:59;;;;;;;;;;;24.10;99.90;;;;;;4177338;28;19925;-83
2022/08/25 08:16:02;;;;;;;;;;;24.20;99.90;;;;;;4177623;28;19933;-83
2022/08/25 08:21:00;;;;;;;;;;;24.30;99.90;;;;;;4177443;28;19916;-83
2022/08/25 08:23:02;;;;;;;;;;;24.50;99.90;;;;;;4195010;28;19940;-83
2022/08/25 08:25:05;;;;;;;;;;;24.50;99.90;;;;;;4194794;28;19931;-83
2022/08/25 08:27:07;;;;;;;;;;;24.80;99.90;;;;;;4195314;28;19975;-84
2022/08/25 08:29:09;;;;;;;;;;;25.00;99.90;;;;;;4177255;28;19990;-84
2022/08/25 08:31:11;;;;;;;;;;;25.20;99.90;;;;;;4195290;28;20384;-83
2022/08/25 08:33:13;;;;;;;;;;;25.30;99.90;;;;;;4196355;28;20023;-83
2022/08/25 08:35:17;;;;;;;;;;;25.30;99.90;;;;;;4180589;28;19925;-84
2022/08/25 08:37:21;;;;;;;;;;;25.20;99.90;;;;;;4180335;28;19929;-83
2022/08/25 08:39:24;;;;;;;;;;;25.40;99.90;;;;;;4197143;28;19972;-84
2022/08/25 08:44:09;;;;;;;;;;;25.70;99.90;;;;;;4198297;28;20020;-83
2022/08/25 08:46:12;;;;;;;;;;;25.80;99.90;;;;;;4198145;28;19928;-83
2022/08/25 08:48:21;;;;;;;;;;;25.80;99.90;;;;;;4163718;28;20412;-83
2022/08/25 08:50:28;;;;;;;;;;;25.90;99.90;;;;;;4197264;28;19928;-83
2022/08/25 08:55:36;;;;;;;;;;;26.00;99.90;;;;;;4196289;28;20364;-83
2022/08/25 08:57:42;;;;;;;;;;;26.00;99.90;;;;;;4196256;28;19978;-83
2022/08/25 08:59:55;;;;;;;;;;;26.00;99.90;;;;;;4189519;28;19976;-85
2022/08/25 09:01:59;;;;;;;;;;;26.10;99.90;;;;;;4180032;28;19928;-84
2022/08/25 09:04:09;;;;;;;;;;;26.10;99.90;;;;;;4180473;28;20788;-84
2022/08/25 09:06:32;;;;;;;;;;;26.10;99.90;;;;;;4196742;28;19928;-84
2022/08/25 09:08:35;;;;;;;;;;;26.20;99.90;;;;;;4178956;28;19925;-83
2022/08/25 09:10:49;;;;;;;;;;;26.30;99.90;;;;;;4179497;28;19925;-84
2022/08/25 09:13:05;;;;;;;;;;;26.30;99.90;;;;;;4180048;28;19929;-84
2022/08/25 09:15:13;;;;;;;;;;;26.40;99.90;;;;;;4164081;28;19929;-84
2022/08/25 09:17:20;;;;;;;;;;;26.50;99.90;;;;;;4196238;28;19960;-84
2022/08/25 09:19:41;;;;;;;;;;;26.70;99.90;;;;;;4181371;28;20304;-84
2022/08/25 09:22:06;;;;;;;;;;;26.70;99.90;;;;;;4184089;28;20348;-84
2022/08/25 09:24:30;;;;;;;;;;;26.80;99.80;;;;;;4167957;28;19936;-84
2022/08/25 09:29:37;;;;;;;;;;;26.80;99.70;;;;;;4180976;28;19917;-83
2022/08/25 09:31:40;;;;;;;;;;;27.20;99.90;;;;;;4196074;28;19924;-83
2022/08/25 09:33:42;;;;;;;;;;;27.60;99.50;;;;;;4183345;28;20037;-83
2022/08/25 09:35:45;;;;;;;;;;;27.50;99.20;;;;;;4148276;28;20559;-84
2022/08/25 09:37:56;;;;;;;;;;;27.50;99.00;;;;;;4184768;28;20402;-84
2022/08/25 09:39:58;;;;;;;;;;;27.50;99.60;;;;;;4180878;28;19925;-84
2022/08/25 09:42:00;;;;;;;;;;;27.80;99.30;;;;;;4195772;28;20006;-83
2022/08/25 09:44:02;;;;;;;;;;;27.90;99.00;;;;;;4200242;28;19978;-84
2022/08/25 09:46:04;;;;;;;;;;;27.80;98.80;;;;;;4212996;28;20009;-84
2022/08/25 09:48:26;;;;;;;;;;;27.90;98.70;;;;;;4205550;28;19971;-83
2022/08/25 09:50:31;;;;;;;;;;;28.00;98.60;;;;;;4186240;28;19979;-84
2022/08/25 09:52:41;;;;;;;;;;;28.20;98.60;;;;;;4179738;28;19964;-84
2022/08/25 09:54:43;;;;;;;;;;;28.30;98.40;;;;;;4179316;28;19948;-84
2022/08/25 09:56:50;;;;;;;;;;;28.30;97.80;;;;;;4178945;28;19925;-84
2022/08/25 09:58:53;;;;;;;;;;;28.30;98.20;;;;;;4199260;28;19925;-84
2022/08/25 10:03:56;;;;;;;;;;;28.90;99.00;;;;;;4183155;28;19975;-84
2022/08/25 10:05:58;;;;;;;;;;;28.70;97.90;;;;;;4198678;28;19929;-84
2022/08/25 10:08:02;;;;;;;;;;;29.00;97.80;;;;;;4180186;28;19966;-84
2022/08/25 10:10:14;;;;;;;;;;;29.10;97.20;;;;;;4178287;28;19984;-84
2022/08/25 10:12:23;;;;;;;;;;;29.20;97.20;;;;;;4181811;28;19925;-84
2022/08/25 10:14:35;;;;;;;;;;;29.20;96.90;;;;;;4196666;28;20051;-84
2022/08/25 10:16:37;;;;;;;;;;;29.00;98.70;;;;;;4190924;28;19929;-84
2022/08/25 10:18:40;;;;;;;;;;;29.10;97.70;;;;;;4195178;28;20307;-84
2022/08/25 10:20:42;;;;;;;;;;;29.20;96.50;;;;;;4199565;28;19936;-85
2022/08/25 10:22:46;;;;;;;;;;;29.40;96.50;;;;;;4196599;28;19932;-84
2022/08/25 10:24:49;;;;;;;;;;;29.60;96.20;;;;;;4181989;28;19924;-84
2022/08/25 10:26:54;;;;;;;;;;;29.60;97.10;;;;;;4173050;28;20387;-84
2022/08/25 10:28:56;;;;;;;;;;;29.60;96.40;;;;;;4182015;28;19935;-84
2022/08/25 10:31:04;;;;;;;;;;;29.70;96.60;;;;;;4199246;28;19928;-84
2022/08/25 10:33:15;;;;;;;;;;;29.90;95.80;;;;;;4186854;28;19924;-84
2022/08/25 10:38:21;;;;;;;;;;;29.50;96.00;;;;;;4183307;28;19916;-86
2022/08/25 10:40:43;;;;;;;;;;;29.80;95.60;;;;;;4193381;28;19929;-86
2022/08/25 10:43:08;;;;;;;;;;;30.00;95.40;;;;;;4197761;28;19981;-86
2022/08/25 10:47:47;;;;;;;;;;;29.90;96.10;;;;;;4110423;28;20027;-85
2022/08/25 10:49:51;;;;;;;;;;;29.70;95.10;;;;;;4096860;29;19934;-85
2022/08/25 10:52:04;;;;;;;;;;;29.30;94.50;;;;;;4109848;28;20223;-86
2022/08/25 10:54:06;;;;;;;;;;;29.50;95.00;;;;;;4112467;28;20375;-85
2022/08/25 10:56:20;;;;;;;;;;;29.40;95.00;;;;;;4109791;28;20013;-85
2022/08/25 10:58:40;;;;;;;;;;;29.80;96.30;;;;;;4092701;28;20017;-85
2022/08/25 11:00:59;;;;;;;;;;;30.20;94.60;;;;;;4097018;28;20425;-85
2022/08/25 11:03:16;;;;;;;;;;;30.30;94.90;;;;;;4096834;29;19927;-85
2022/08/25 11:05:39;;;;;;;;;;;30.60;95.10;;;;;;4080316;29;19977;-85
2022/08/25 11:07:43;;;;;;;;;;;30.40;94.70;;;;;;4107205;28;19930;-86
2022/08/25 11:12:43;;;;;;;;;;;30.50;95.00;;;;;;4113155;28;19949;-86
2022/08/25 11:14:50;;;;;;;;;;;30.60;94.30;;;;;;4096708;29;19930;-85
2022/08/25 11:16:57;;;;;;;;;;;30.60;94.10;;;;;;4110126;28;19934;-86
2022/08/25 11:19:05;;;;;;;;;;;30.60;93.70;;;;;;4102505;28;19930;-86
2022/08/25 11:21:14;;;;;;;;;;;30.40;93.80;;;;;;4080490;29;19937;-85
2022/08/25 11:23:35;;;;;;;;;;;30.30;93.80;;;;;;4169140;28;19975;-86
2022/08/25 11:25:41;;;;;;;;;;;29.90;93.70;;;;;;4161544;28;20320;-86
2022/08/25 11:27:43;;;;;;;;;;;30.20;94.90;;;;;;4161894;28;19929;-86
2022/08/25 11:29:50;;;;;;;;;;;30.50;94.40;;;;;;4194647;28;19924;-86
2022/08/25 11:31:53;;;;;;;;;;;30.60;93.50;;;;;;4164011;28;19979;-86
2022/08/25 11:33:57;;;;;;;;;;;30.40;93.90;;;;;;4211547;28;19924;-86
2022/08/25 11:36:25;;;;;;;;;;;30.30;95.90;;;;;;4161613;28;19951;-86
2022/08/25 11:38:45;;;;;;;;;;;30.20;94.70;;;;;;4177300;28;20426;-86
2022/08/25 11:41:07;;;;;;;;;;;30.70;94.10;;;;;;4161917;28;20011;-86
2022/08/25 11:43:30;;;;;;;;;;;31.10;94.30;;;;;;4195734;28;19935;-86
2022/08/25 11:45:57;;;;;;;;;;;31.10;93.80;;;;;;4195962;28;19947;-86
2022/08/25 11:48:19;;;;;;;;;;;30.80;92.90;;;;;;4166513;28;19971;-86
2022/08/25 11:50:31;;;;;;;;;;;30.80;95.60;;;;;;4178038;28;19967;-86
2022/08/25 11:52:34;;;;;;;;;;;30.50;93.10;;;;;;4178062;28;19978;-86
2022/08/25 11:54:41;;;;;;;;;;;30.30;93.30;;;;;;4195246;28;19978;-86
2022/08/25 11:56:50;;;;;;;;;;;30.10;93.30;;;;;;4194983;28;19974;-86
2022/08/25 11:58:52;;;;;;;;;;;29.90;93.00;;;;;;4177839;28;20288;-85
2022/08/25 12:03:46;;;;;;;;;;;29.70;93.90;;;;;;4194149;28;19932;-86
2022/08/25 12:05:50;;;;;;;;;;;30.20;96.40;;;;;;4177981;28;19932;-86
2022/08/25 12:08:37;;;;;;;;;;;30.50;93.60;;;;;;4174177;28;19929;-86
2022/08/25 12:10:37;;;;;;;;;;;30.70;92.90;;;;;;4189157;28;19967;-86
2022/08/25 12:12:42;;;;;;;;;;;30.80;92.60;;;;;;4150030;28;19935;-86
2022/08/25 12:14:45;;;;;;;;;;;30.70;93.80;;;;;;4197077;28;19935;-86
2022/08/25 12:16:49;;;;;;;;;;;31.10;94.10;;;;;;4196963;28;19929;-86
2022/08/25 12:18:52;;;;;;;;;;;30.80;92.10;;;;;;4197961;28;20281;-86
2022/08/25 12:20:55;;;;;;;;;;;30.50;92.30;;;;;;4164590;28;19940;-85
2022/08/25 12:22:59;;;;;;;;;;;30.50;92.80;;;;;;4198151;28;19924;-85
2022/08/25 12:25:20;;;;;;;;;;;30.20;92.10;;;;;;4194673;28;19972;-85
2022/08/25 12:27:25;;;;;;;;;;;30.30;93.10;;;;;;4199389;28;19924;-85
2022/08/25 12:29:30;;;;;;;;;;;30.20;92.40;;;;;;4193869;28;19925;-86
2022/08/25 12:31:41;;;;;;;;;;;30.10;91.80;;;;;;4181639;28;20751;-86
2022/08/25 12:34:06;;;;;;;;;;;30.20;93.30;;;;;;4175172;28;19928;-86
2022/08/25 12:36:10;;;;;;;;;;;30.30;91.70;;;;;;4181164;28;19987;-86
2022/08/25 12:38:30;;;;;;;;;;;30.40;93.10;;;;;;4164677;28;20421;-86
2022/08/25 12:40:51;;;;;;;;;;;30.20;93.10;;;;;;4197813;28;19928;-86
2022/08/25 12:43:12;;;;;;;;;;;30.90;91.90;;;;;;4164108;28;19940;-86
2022/08/25 12:45:22;;;;;;;;;;;30.80;92.30;;;;;;4164028;28;19940;-86
2022/08/25 12:47:26;;;;;;;;;;;30.80;91.60;;;;;;4198192;28;19976;-86
2022/08/25 12:49:28;;;;;;;;;;;31.00;92.30;;;;;;4180908;28;19925;-85
2022/08/25 12:51:47;;;;;;;;;;;31.10;92.00;;;;;;4163607;28;19932;-85
2022/08/25 12:54:12;;;;;;;;;;;31.40;91.90;;;;;;4162584;28;19932;-85